Clyo, Georgia
Current Conditions -  °F | °C
As of 4:55 AM on Sunday 23 Nov 2014 (Local Time) from KJYL Reporting Station
Moderate Rain Moderate Rain  
Wind Chill: 58°   Ceiling: 2300
Heat Index: 58°   Visibility: 5mi
Dew Point: 57°   Wind: 8mph
Humidity: 97%   Direction: 70°ENE
Pressure: 30.14"   Gusts: NA
Location:  32.48°N, 81.27°W
Report Text: KJYL 230955Z AUTO 07007KT 5SM RA SCT004 BKN023 OVC037 14/14 A3014 RMK AO2 T01440140
Loading
Personal Weather Stations






























Interactive Weather Map New forecast layout! Learn more

10-Day Weather Forecast

Advertisements
Track Severe Weather on mobile